createdAt,value
2019-01-21T00:02:10.731Z,-3.70
2019-01-21T00:04:41.720Z,-3.60
2019-01-21T00:07:12.832Z,-3.70
2019-01-21T00:09:43.576Z,-3.70
2019-01-21T00:12:14.398Z,-3.80
2019-01-21T00:14:45.073Z,-3.70
2019-01-21T00:17:22.244Z,-3.70
2019-01-21T00:19:48.767Z,-3.80
2019-01-21T00:22:20.239Z,-3.80
2019-01-21T00:24:50.847Z,-3.90
2019-01-21T00:27:21.648Z,-4.00
2019-01-21T00:29:52.468Z,-4.00
2019-01-21T00:32:23.050Z,-4.00
2019-01-21T00:34:53.603Z,-4.00
2019-01-21T00:37:24.454Z,-3.90
2019-01-21T00:39:55.035Z,-4.00
2019-01-21T00:42:25.673Z,-4.10
2019-01-21T00:44:56.595Z,-4.20
2019-01-21T00:47:30.002Z,-4.30
2019-01-21T00:49:59.744Z,-4.30
2019-01-21T00:52:30.579Z,-4.30
2019-01-21T00:55:01.128Z,-4.30
2019-01-21T00:57:31.661Z,-4.50
2019-01-21T01:00:05.224Z,-4.60
2019-01-21T01:02:35.733Z,-4.70
2019-01-21T01:05:08.836Z,-4.80
2019-01-21T01:07:40.542Z,-5.00
2019-01-21T01:10:12.720Z,-5.10
2019-01-21T01:12:43.266Z,-5.20
2019-01-21T01:15:14.630Z,-5.20
2019-01-21T01:17:45.184Z,-5.20
2019-01-21T01:20:21.526Z,-5.20
2019-01-21T01:22:52.157Z,-5.20
2019-01-21T01:25:22.691Z,-5.20
2019-01-21T01:27:53.223Z,-5.20
2019-01-21T01:30:23.826Z,-5.20
2019-01-21T01:32:54.655Z,-5.20
2019-01-21T01:35:25.261Z,-5.20
2019-01-21T01:37:55.982Z,-5.20
2019-01-21T01:40:26.627Z,-5.30
2019-01-21T01:42:57.169Z,-5.30
2019-01-21T01:45:28.934Z,-5.20
2019-01-21T01:48:07.049Z,-5.30
2019-01-21T01:50:37.827Z,-5.30
2019-01-21T01:53:08.765Z,-5.40
2019-01-21T01:55:39.269Z,-5.40
2019-01-21T01:58:10.591Z,-5.30
2019-01-21T02:00:41.135Z,-5.30
2019-01-21T02:03:11.935Z,-5.20
2019-01-21T02:05:42.711Z,-5.20
2019-01-21T02:08:13.950Z,-5.30
2019-01-21T02:10:44.777Z,-5.40
2019-01-21T02:13:15.606Z,-5.40
2019-01-21T02:15:46.167Z,-5.50
2019-01-21T02:18:17.020Z,-5.50
2019-01-21T02:20:51.294Z,-5.50
2019-01-21T02:23:26.334Z,-5.60
2019-01-21T02:26:05.045Z,-5.60
2019-01-21T02:29:30.216Z,-5.70
2019-01-21T02:33:19.736Z,-5.70
2019-01-21T02:36:36.378Z,-5.80
2019-01-21T02:39:50.836Z,-5.90
2019-01-21T02:43:00.235Z,-5.90
2019-01-21T02:46:29.723Z,-5.90
2019-01-21T02:49:52.838Z,-5.90
2019-01-21T02:53:09.682Z,-5.90
2019-01-21T02:56:47.202Z,-6.00
2019-01-21T03:00:10.100Z,-6.00
2019-01-21T03:03:18.311Z,-6.10
2019-01-21T03:06:31.211Z,-6.10
2019-01-21T03:10:13.348Z,-6.20
2019-01-21T03:13:27.062Z,-6.20
2019-01-21T03:16:41.275Z,-6.30
2019-01-21T03:20:14.219Z,-6.30
2019-01-21T03:23:42.622Z,-6.30
2019-01-21T03:27:27.158Z,-6.30
2019-01-21T03:31:22.851Z,-6.20
2019-01-21T03:34:39.293Z,-6.30
2019-01-21T03:38:06.068Z,-6.30
2019-01-21T03:41:31.889Z,-6.30
2019-01-21T03:44:33.113Z,-6.40
2019-01-21T03:47:31.808Z,-6.30
2019-01-21T03:50:48.678Z,-6.40
2019-01-21T03:53:46.811Z,-6.50
2019-01-21T03:56:52.067Z,-6.60
2019-01-21T03:59:48.218Z,-6.60
2019-01-21T04:03:19.138Z,-6.70
2019-01-21T04:06:25.572Z,-6.70
2019-01-21T04:09:54.306Z,-6.70
2019-01-21T04:13:15.909Z,-6.70
2019-01-21T04:16:35.504Z,-6.70
2019-01-21T04:19:56.087Z,-6.70
2019-01-21T04:23:18.790Z,-6.70
2019-01-21T04:26:46.335Z,-6.80
2019-01-21T04:30:15.628Z,-6.80
2019-01-21T04:33:36.923Z,-6.80
2019-01-21T04:37:13.062Z,-6.90
2019-01-21T04:40:31.103Z,-6.90
2019-01-21T04:44:12.244Z,-6.90
2019-01-21T04:47:43.848Z,-7.00
2019-01-21T04:51:16.587Z,-7.00
2019-01-21T04:54:30.446Z,-7.00
2019-01-21T04:58:05.103Z,-7.10
2019-01-21T05:01:35.545Z,-7.00
2019-01-21T05:04:55.102Z,-7.00
2019-01-21T05:08:20.068Z,-7.00
2019-01-21T05:12:09.453Z,-7.10
2019-01-21T05:15:27.741Z,-7.10
2019-01-21T05:19:06.406Z,-7.10
2019-01-21T05:22:28.654Z,-7.20
2019-01-21T05:25:54.059Z,-7.10
2019-01-21T05:29:24.532Z,-7.00
2019-01-21T05:32:38.363Z,-7.10
2019-01-21T05:36:30.821Z,-7.10
2019-01-21T05:39:48.345Z,-7.20
2019-01-21T05:43:16.730Z,-7.20
2019-01-21T05:46:31.903Z,-7.40
2019-01-21T05:50:00.340Z,-7.30
2019-01-21T05:53:16.500Z,-7.30
2019-01-21T05:57:18.204Z,-7.30
2019-01-21T06:01:25.419Z,-7.30
2019-01-21T06:04:45.586Z,-7.40
2019-01-21T06:08:07.294Z,-7.40
2019-01-21T06:11:02.007Z,-7.50
2019-01-21T06:14:33.380Z,-7.50
2019-01-21T06:18:12.602Z,-7.50
2019-01-21T06:21:26.457Z,-7.50
2019-01-21T06:24:28.485Z,-7.60
2019-01-21T06:27:36.566Z,-7.60
2019-01-21T06:31:10.564Z,-7.60
2019-01-21T06:34:35.252Z,-7.60
2019-01-21T06:37:50.218Z,-7.70
2019-01-21T06:41:37.983Z,-7.70
2019-01-21T06:45:11.949Z,-7.70
2019-01-21T06:48:35.946Z,-7.80
2019-01-21T06:51:53.567Z,-7.80
2019-01-21T06:55:24.179Z,-7.70
2019-01-21T06:58:52.217Z,-7.70
2019-01-21T07:02:56.254Z,-7.80
2019-01-21T07:06:40.652Z,-7.70
2019-01-21T07:10:05.323Z,-7.60
2019-01-21T07:13:27.035Z,-7.50
2019-01-21T07:16:39.512Z,-7.40
2019-01-21T07:19:40.576Z,-7.30
2019-01-21T07:23:19.516Z,-7.20
2019-01-21T07:26:59.168Z,-7.00
2019-01-21T07:30:14.458Z,-6.90
2019-01-21T07:33:31.259Z,-6.80
2019-01-21T07:36:39.429Z,-6.80
2019-01-21T07:39:56.130Z,-6.80
2019-01-21T07:43:28.740Z,-6.70
2019-01-21T07:46:41.777Z,-6.50
2019-01-21T07:50:12.990Z,-6.40
2019-01-21T07:53:42.618Z,-6.40
2019-01-21T07:57:27.562Z,-6.30
2019-01-21T08:00:50.433Z,-6.20
2019-01-21T08:04:32.888Z,-6.10
2019-01-21T08:07:34.319Z,-6.00
2019-01-21T08:10:58.861Z,-5.90
2019-01-21T08:14:32.986Z,-5.80
2019-01-21T08:18:16.867Z,-5.80
2019-01-21T08:21:29.510Z,-5.70
2019-01-21T08:24:50.139Z,-5.60
2019-01-21T08:28:24.644Z,-5.60
2019-01-21T08:31:40.683Z,-5.50
2019-01-21T08:34:57.024Z,-5.40
2019-01-21T08:38:30.261Z,-5.40
2019-01-21T08:41:40.937Z,-5.30
2019-01-21T08:45:04.185Z,-5.20
2019-01-21T08:48:39.057Z,-5.10
2019-01-21T08:51:43.563Z,-5.00
2019-01-21T08:54:44.227Z,-4.90
2019-01-21T08:57:48.565Z,-4.90
2019-01-21T09:01:05.530Z,-4.90
2019-01-21T09:04:45.217Z,-4.90
2019-01-21T09:08:14.920Z,-4.90
2019-01-21T09:11:51.829Z,-4.90
2019-01-21T09:15:16.099Z,-4.80
2019-01-21T09:18:17.038Z,-4.70
2019-01-21T09:21:34.800Z,-4.60
2019-01-21T09:25:26.284Z,-4.40
2019-01-21T09:28:49.132Z,-4.50
2019-01-21T09:32:04.555Z,-4.40
2019-01-21T09:35:25.743Z,-4.20
2019-01-21T09:38:50.985Z,-4.40
2019-01-21T09:42:24.435Z,-4.40
2019-01-21T09:46:00.251Z,-4.30
2019-01-21T09:48:28.398Z,-4.10
2019-01-21T09:51:07.879Z,-4.10
2019-01-21T09:53:39.597Z,-4.10
2019-01-21T09:56:10.264Z,-4.00
2019-01-21T09:58:42.049Z,-4.00
2019-01-21T10:01:12.985Z,-3.80
2019-01-21T10:03:45.590Z,-3.70
2019-01-21T10:06:20.123Z,-3.60
2019-01-21T10:09:33.125Z,-3.60
2019-01-21T10:13:03.484Z,-3.60
2019-01-21T10:15:56.734Z,-3.70
2019-01-21T10:19:50.795Z,-3.60
2019-01-21T10:22:53.054Z,-3.60
2019-01-21T10:26:14.421Z,-3.60
2019-01-21T10:29:44.715Z,-3.40
2019-01-21T10:33:15.380Z,-3.40
2019-01-21T10:36:23.723Z,-3.50
2019-01-21T10:39:50.585Z,-3.40
2019-01-21T10:43:18.052Z,-3.30
2019-01-21T10:46:48.887Z,-3.30
2019-01-21T10:49:48.155Z,-3.20
2019-01-21T10:53:26.940Z,-3.20
2019-01-21T10:57:05.547Z,-3.20
2019-01-21T11:00:51.474Z,-3.00
2019-01-21T11:04:24.367Z,-3.00
2019-01-21T11:08:08.498Z,-2.90
2019-01-21T11:11:54.072Z,-2.90
2019-01-21T11:15:08.806Z,-3.00
2019-01-21T11:18:57.894Z,-2.80
2019-01-21T11:22:02.081Z,-2.70
2019-01-21T11:25:31.530Z,-2.70
2019-01-21T11:28:43.367Z,-2.60
2019-01-21T11:32:12.053Z,-2.80
2019-01-21T11:35:09.883Z,-2.80
2019-01-21T11:38:30.314Z,-2.80
2019-01-21T11:41:23.467Z,-2.60
2019-01-21T11:44:50.540Z,-2.50
2019-01-21T11:47:35.041Z,-2.40
2019-01-21T11:51:03.133Z,-2.40
2019-01-21T11:54:27.696Z,-2.30
2019-01-21T11:57:43.300Z,-2.40
2019-01-21T12:00:49.801Z,-2.60
2019-01-21T12:03:56.037Z,-2.60
2019-01-21T12:07:21.224Z,-2.50
2019-01-21T12:11:11.781Z,-2.50
2019-01-21T12:14:28.284Z,-2.50
2019-01-21T12:18:00.058Z,-2.40
2019-01-21T12:21:39.733Z,-2.40
2019-01-21T12:25:15.294Z,-2.60
2019-01-21T12:28:57.985Z,-2.50
2019-01-21T12:32:05.479Z,-2.50
2019-01-21T12:35:34.565Z,-2.60
2019-01-21T12:39:05.659Z,-2.40
2019-01-21T12:43:09.305Z,-2.40
2019-01-21T12:46:44.243Z,-2.50
2019-01-21T12:50:32.591Z,-2.40
2019-01-21T12:53:49.449Z,-2.50
2019-01-21T12:57:17.340Z,-2.30
2019-01-21T13:00:29.449Z,-2.30
2019-01-21T13:03:55.293Z,-2.30
2019-01-21T13:07:04.455Z,-2.30
2019-01-21T13:10:31.697Z,-2.30
2019-01-21T13:13:36.433Z,-2.50
2019-01-21T13:16:54.359Z,-2.40
2019-01-21T13:20:10.700Z,-2.30
2019-01-21T13:23:26.437Z,-2.30
2019-01-21T13:26:43.663Z,-2.10
2019-01-21T13:30:28.348Z,-2.30
2019-01-21T13:41:01.133Z,-2.50
2019-01-21T13:44:40.257Z,-2.50
2019-01-21T13:48:12.075Z,-2.40
2019-01-21T13:51:27.475Z,-2.40
2019-01-21T13:54:55.252Z,-2.40
2019-01-21T13:58:40.157Z,-2.40
2019-01-21T14:01:39.381Z,-2.40
2019-01-21T14:04:58.490Z,-2.40
2019-01-21T14:08:10.441Z,-2.40
2019-01-21T14:11:37.958Z,-2.40
2019-01-21T14:14:51.113Z,-2.30
2019-01-21T14:18:16.866Z,-2.30
2019-01-21T14:22:03.714Z,-2.20
2019-01-21T14:25:55.020Z,-2.20
2019-01-21T14:29:04.063Z,-2.30
2019-01-21T14:32:12.893Z,-2.40
2019-01-21T14:35:11.205Z,-2.40
2019-01-21T14:38:59.775Z,-2.40
2019-01-21T14:42:17.131Z,-2.40
2019-01-21T14:45:42.132Z,-2.30
2019-01-21T14:49:10.849Z,-2.30
2019-01-21T14:52:49.391Z,-2.30
2019-01-21T14:55:45.406Z,-2.30
2019-01-21T14:58:54.431Z,-2.30
2019-01-21T15:02:22.060Z,-2.20
2019-01-21T15:05:47.286Z,-2.20
2019-01-21T15:08:49.343Z,-2.30
2019-01-21T15:12:35.514Z,-2.30
2019-01-21T15:15:47.170Z,-2.30
2019-01-21T15:18:50.290Z,-2.30
2019-01-21T15:22:31.615Z,-2.30
2019-01-21T15:26:12.637Z,-2.50
2019-01-21T15:29:36.406Z,-2.50
2019-01-21T15:33:03.039Z,-2.50
2019-01-21T15:36:17.252Z,-2.60
2019-01-21T15:39:31.882Z,-2.70
2019-01-21T15:42:34.322Z,-2.60
2019-01-21T15:45:43.608Z,-2.60
2019-01-21T15:49:09.635Z,-2.70
2019-01-21T15:52:37.174Z,-2.70
2019-01-21T15:55:31.263Z,-2.70
2019-01-21T15:58:51.120Z,-2.60
2019-01-21T16:01:53.926Z,-2.70
2019-01-21T16:05:01.767Z,-2.70
2019-01-21T16:08:20.502Z,-2.70
2019-01-21T16:11:19.541Z,-2.80
2019-01-21T16:13:59.696Z,-2.70
2019-01-21T16:17:18.507Z,-2.70
2019-01-21T16:20:08.426Z,-2.70
2019-01-21T16:23:19.647Z,-2.70
2019-01-21T16:26:20.715Z,-2.60
2019-01-21T16:30:06.025Z,-2.60
2019-01-21T16:33:27.579Z,-2.70
2019-01-21T16:36:36.733Z,-2.70
2019-01-21T16:40:11.181Z,-2.80
2019-01-21T16:42:42.027Z,-2.80
2019-01-21T16:45:12.884Z,-2.90
2019-01-21T16:47:43.522Z,-2.90
2019-01-21T16:50:14.809Z,-3.00
2019-01-21T16:52:45.687Z,-3.00
2019-01-21T16:55:16.545Z,-3.00
2019-01-21T16:57:47.486Z,-3.10
2019-01-21T17:00:19.213Z,-3.10
2019-01-21T17:02:52.217Z,-3.10
2019-01-21T17:05:23.230Z,-3.30
2019-01-21T17:07:53.809Z,-3.30
2019-01-21T17:13:00.767Z,-3.40
2019-01-21T17:15:31.702Z,-3.50
2019-01-21T17:18:02.467Z,-3.60
2019-01-21T17:20:34.070Z,-3.70
2019-01-21T17:23:05.953Z,-3.80
2019-01-21T17:25:36.763Z,-3.80
2019-01-21T17:28:07.756Z,-3.90
2019-01-21T17:30:38.662Z,-3.90
2019-01-21T17:33:09.570Z,-3.90
2019-01-21T17:35:40.399Z,-3.90
2019-01-21T17:38:11.062Z,-3.90
2019-01-21T17:40:41.605Z,-3.90
2019-01-21T17:43:12.217Z,-3.90
2019-01-21T17:45:44.695Z,-4.00
2019-01-21T17:48:15.539Z,-4.00
2019-01-21T17:50:46.235Z,-4.00
2019-01-21T17:53:16.799Z,-4.00
2019-01-21T17:55:47.566Z,-3.90
2019-01-21T17:58:19.042Z,-3.90
2019-01-21T18:00:49.821Z,-3.90
2019-01-21T18:03:20.655Z,-3.90
2019-01-21T18:05:51.663Z,-3.80
2019-01-21T18:08:22.682Z,-3.70
2019-01-21T18:10:53.607Z,-3.70
2019-01-21T18:13:24.191Z,-3.70
2019-01-21T18:15:54.758Z,-3.80
2019-01-21T18:18:25.295Z,-3.80
2019-01-21T18:20:55.930Z,-3.80
2019-01-21T18:23:26.569Z,-3.90
2019-01-21T18:25:57.109Z,-3.90
2019-01-21T18:28:27.715Z,-3.90
2019-01-21T18:30:58.338Z,-3.90
2019-01-21T18:33:28.935Z,-3.90
2019-01-21T18:35:59.616Z,-3.90
2019-01-21T18:38:30.241Z,-3.90
2019-01-21T18:41:00.831Z,-3.90
2019-01-21T18:43:31.715Z,-4.00
2019-01-21T18:46:02.308Z,-3.90
2019-01-21T18:48:32.827Z,-3.90
2019-01-21T18:51:03.525Z,-3.80
2019-01-21T18:53:34.110Z,-3.80
2019-01-21T18:56:06.349Z,-3.80
2019-01-21T18:58:36.948Z,-3.80
2019-01-21T19:01:07.991Z,-3.80
2019-01-21T19:03:38.916Z,-3.70
2019-01-21T19:06:09.768Z,-3.70
2019-01-21T19:08:40.702Z,-3.70
2019-01-21T19:11:11.249Z,-3.70
2019-01-21T19:13:41.862Z,-3.70
2019-01-21T19:16:12.458Z,-3.70
2019-01-21T19:18:43.038Z,-3.70
2019-01-21T19:21:13.936Z,-3.80
2019-01-21T19:23:44.790Z,-3.90
2019-01-21T19:26:19.445Z,-3.80
2019-01-21T19:28:50.016Z,-3.90
2019-01-21T19:31:21.077Z,-3.90
2019-01-21T19:33:51.885Z,-3.90
2019-01-21T19:36:22.736Z,-3.90
2019-01-21T19:38:53.375Z,-3.90
2019-01-21T19:41:24.045Z,-3.90
2019-01-21T19:43:54.839Z,-3.80
2019-01-21T19:46:25.701Z,-3.90
2019-01-21T19:48:56.318Z,-3.90
2019-01-21T19:51:27.052Z,-3.90
2019-01-21T19:53:57.923Z,-3.90
2019-01-21T19:56:28.853Z,-3.90
2019-01-21T19:58:59.660Z,-4.00
2019-01-21T20:01:30.254Z,-4.00
2019-01-21T20:04:00.993Z,-4.00
2019-01-21T20:06:31.899Z,-4.00
2019-01-21T20:09:02.913Z,-4.00
2019-01-21T20:11:34.883Z,-4.00
2019-01-21T20:14:06.470Z,-4.10
2019-01-21T20:16:37.206Z,-4.10
2019-01-21T20:19:08.233Z,-4.00
2019-01-21T20:21:39.103Z,-4.10
2019-01-21T20:24:10.032Z,-4.10
2019-01-21T20:26:40.870Z,-4.10
2019-01-21T20:29:11.550Z,-4.10
2019-01-21T20:31:42.257Z,-4.20
2019-01-21T20:34:13.502Z,-4.10
2019-01-21T20:36:44.149Z,-4.10
2019-01-21T20:39:15.106Z,-4.10
2019-01-21T20:41:45.937Z,-4.20
2019-01-21T20:44:16.860Z,-4.20
2019-01-21T20:46:47.506Z,-4.20
2019-01-21T20:49:18.202Z,-4.20
2019-01-21T20:51:49.141Z,-4.30
2019-01-21T20:54:20.096Z,-4.30
2019-01-21T20:56:50.951Z,-4.30
2019-01-21T20:59:21.839Z,-4.50
2019-01-21T21:01:52.588Z,-4.50
2019-01-21T21:04:23.185Z,-4.50
2019-01-21T21:06:54.061Z,-4.50
2019-01-21T21:09:24.656Z,-4.40
2019-01-21T21:11:55.208Z,-4.50
2019-01-21T21:14:25.803Z,-4.50
2019-01-21T21:16:56.459Z,-4.60
2019-01-21T21:19:26.913Z,-4.60
2019-01-21T21:21:57.376Z,-4.70
2019-01-21T21:24:28.006Z,-4.70
2019-01-21T21:26:59.215Z,-4.60
2019-01-21T21:29:29.910Z,-4.60
2019-01-21T21:32:00.823Z,-4.60
2019-01-21T21:34:31.323Z,-4.60
2019-01-21T21:37:02.062Z,-4.70
2019-01-21T21:39:32.615Z,-4.70
2019-01-21T21:42:03.089Z,-4.80
2019-01-21T21:44:34.398Z,-4.80
2019-01-21T21:47:06.201Z,-4.90
2019-01-21T21:49:36.913Z,-4.90
2019-01-21T21:52:07.682Z,-4.90
2019-01-21T21:54:38.102Z,-4.90
2019-01-21T21:57:08.899Z,-4.80
2019-01-21T21:59:39.389Z,-5.00
2019-01-21T22:02:09.921Z,-5.00
2019-01-21T22:04:40.412Z,-5.00
2019-01-21T22:07:11.504Z,-5.00
2019-01-21T22:09:42.210Z,-5.00
2019-01-21T22:12:12.990Z,-5.00
2019-01-21T22:14:43.593Z,-5.10
2019-01-21T22:17:14.102Z,-5.20
2019-01-21T22:19:44.968Z,-5.10
2019-01-21T22:22:15.535Z,-5.10
2019-01-21T22:24:46.241Z,-5.10
2019-01-21T22:27:17.141Z,-5.10
2019-01-21T22:29:48.119Z,-5.10
2019-01-21T22:32:19.005Z,-5.10
2019-01-21T22:34:49.628Z,-5.10
2019-01-21T22:37:20.302Z,-5.20
2019-01-21T22:39:51.248Z,-5.20
2019-01-21T22:42:22.287Z,-5.20
2019-01-21T22:44:53.068Z,-5.30
2019-01-21T22:47:23.607Z,-5.20
2019-01-21T22:49:54.143Z,-5.30
2019-01-21T22:52:25.019Z,-5.20
2019-01-21T22:54:55.559Z,-5.30
2019-01-21T22:57:26.240Z,-5.40
2019-01-21T22:59:57.144Z,-5.40
2019-01-21T23:02:28.012Z,-5.40
2019-01-21T23:04:59.110Z,-5.40
2019-01-21T23:07:29.923Z,-5.40
2019-01-21T23:10:00.555Z,-5.50
2019-01-21T23:12:31.198Z,-5.50
2019-01-21T23:15:02.045Z,-5.40
2019-01-21T23:17:32.554Z,-5.50
2019-01-21T23:20:03.336Z,-5.40
2019-01-21T23:22:34.121Z,-5.50
2019-01-21T23:25:06.384Z,-5.50
2019-01-21T23:27:37.179Z,-5.60
2019-01-21T23:30:11.321Z,-5.60
2019-01-21T23:32:42.104Z,-5.80
2019-01-21T23:35:12.708Z,-5.80
2019-01-21T23:37:43.305Z,-5.90
2019-01-21T23:40:14.789Z,-5.90
2019-01-21T23:42:45.336Z,-6.00
2019-01-21T23:45:16.142Z,-6.00
2019-01-21T23:47:46.710Z,-5.90
2019-01-21T23:50:17.722Z,-6.00
2019-01-21T23:52:48.320Z,-6.00
2019-01-21T23:55:18.886Z,-6.00
2019-01-21T23:57:49.381Z,-6.10
